createdAt,value
2018-10-17T00:00:27.362Z,15.36
2018-10-17T00:01:27.331Z,15.35
2018-10-17T00:02:27.321Z,15.34
2018-10-17T00:03:27.313Z,15.34
2018-10-17T00:04:27.300Z,15.31
2018-10-17T00:05:27.320Z,15.34
2018-10-17T00:06:27.278Z,15.29
2018-10-17T00:07:27.266Z,15.25
2018-10-17T00:08:27.255Z,15.20
2018-10-17T00:09:27.244Z,15.19
2018-10-17T00:10:27.234Z,15.13
2018-10-17T00:11:27.237Z,15.20
2018-10-17T00:12:27.214Z,15.20
2018-10-17T00:13:27.215Z,15.09
2018-10-17T00:14:27.202Z,15.10
2018-10-17T00:15:27.179Z,15.02
2018-10-17T00:16:27.189Z,15.07
2018-10-17T00:17:27.155Z,15.03
2018-10-17T00:18:27.193Z,15.09
2018-10-17T00:19:27.136Z,15.07
2018-10-17T00:20:27.124Z,14.94
2018-10-17T00:21:27.115Z,14.96
2018-10-17T00:22:27.104Z,15.01
2018-10-17T00:23:27.091Z,14.92
2018-10-17T00:24:27.105Z,14.96
2018-10-17T00:25:27.070Z,14.94
2018-10-17T00:26:27.062Z,14.84
2018-10-17T00:27:27.050Z,14.91
2018-10-17T00:28:27.037Z,14.89
2018-10-17T00:29:27.031Z,14.80
2018-10-17T00:30:27.029Z,14.83
2018-10-17T00:31:27.006Z,14.83
2018-10-17T00:32:26.993Z,14.77
2018-10-17T00:33:26.982Z,14.84
2018-10-17T00:34:26.985Z,14.73
2018-10-17T00:35:26.974Z,14.77
2018-10-17T00:36:26.950Z,14.73
2018-10-17T00:37:26.943Z,14.73
2018-10-17T00:38:26.948Z,14.72
2018-10-17T00:39:26.919Z,14.72
2018-10-17T00:40:27.032Z,14.77
2018-10-17T00:41:26.897Z,14.72
2018-10-17T00:42:26.883Z,14.72
2018-10-17T00:43:26.874Z,14.72
2018-10-17T00:44:26.872Z,14.69
2018-10-17T00:45:26.852Z,14.60
2018-10-17T00:46:26.840Z,14.68
2018-10-17T00:47:26.843Z,14.61
2018-10-17T00:48:26.818Z,14.62
2018-10-17T00:49:26.812Z,14.54
2018-10-17T00:50:26.799Z,14.55
2018-10-17T00:51:26.800Z,14.58
2018-10-17T00:52:26.775Z,14.62
2018-10-17T00:53:26.765Z,14.54
2018-10-17T00:54:26.752Z,14.54
2018-10-17T00:55:26.743Z,14.52
2018-10-17T00:56:26.747Z,14.45
2018-10-17T00:57:26.721Z,14.39
2018-10-17T00:58:26.710Z,14.39
2018-10-17T00:59:26.698Z,14.42
2018-10-17T01:00:26.693Z,14.45
2018-10-17T01:01:26.696Z,14.50
2018-10-17T01:02:26.671Z,14.37
2018-10-17T01:03:26.658Z,14.35
2018-10-17T01:04:26.647Z,14.43
2018-10-17T01:05:26.634Z,14.39
2018-10-17T01:06:26.653Z,14.32
2018-10-17T01:07:26.611Z,14.32
2018-10-17T01:08:26.600Z,14.32
2018-10-17T01:09:26.590Z,14.32
2018-10-17T01:10:26.578Z,14.28
2018-10-17T01:11:26.567Z,14.24
2018-10-17T01:12:26.570Z,14.28
2018-10-17T01:13:26.560Z,14.29
2018-10-17T01:14:26.563Z,14.28
2018-10-17T01:15:26.524Z,14.20
2018-10-17T01:16:26.513Z,14.25
2018-10-17T01:17:26.502Z,14.21
2018-10-17T01:18:26.493Z,14.24
2018-10-17T01:19:26.483Z,14.17
2018-10-17T01:20:26.482Z,14.24
2018-10-17T01:21:26.459Z,14.18
2018-10-17T01:22:26.448Z,14.18
2018-10-17T01:23:26.451Z,14.12
2018-10-17T01:24:26.425Z,14.15
2018-10-17T01:25:26.416Z,14.12
2018-10-17T01:26:26.437Z,14.07
2018-10-17T01:27:26.394Z,14.10
2018-10-17T01:28:26.384Z,14.17
2018-10-17T01:29:26.374Z,14.06
2018-10-17T01:30:26.360Z,14.07
2018-10-17T01:31:26.350Z,14.10
2018-10-17T01:32:26.450Z,14.03
2018-10-17T01:33:26.328Z,14.10
2018-10-17T01:34:26.315Z,14.06
2018-10-17T01:35:26.307Z,14.02
2018-10-17T01:36:26.296Z,14.00
2018-10-17T01:37:26.284Z,14.00
2018-10-17T01:38:26.318Z,13.92
2018-10-17T01:39:26.262Z,14.03
2018-10-17T01:40:26.253Z,13.99
2018-10-17T01:41:26.241Z,13.97
2018-10-17T01:42:26.232Z,13.89
2018-10-17T01:43:26.219Z,13.97
2018-10-17T01:44:26.224Z,14.03
2018-10-17T01:45:26.198Z,14.03
2018-10-17T01:46:26.187Z,13.91
2018-10-17T01:47:26.199Z,13.92
2018-10-17T01:48:26.166Z,13.95
2018-10-17T01:49:26.182Z,13.85
2018-10-17T01:50:26.143Z,13.85
2018-10-17T01:51:26.164Z,13.95
2018-10-17T01:52:26.161Z,13.81
2018-10-17T01:53:26.110Z,13.82
2018-10-17T01:54:26.099Z,13.85
2018-10-17T01:55:26.090Z,13.84
2018-10-17T01:56:26.090Z,13.88
2018-10-17T01:57:26.068Z,13.85
2018-10-17T01:58:26.071Z,13.84
2018-10-17T01:59:26.048Z,13.84
2018-10-17T02:00:26.034Z,13.79
2018-10-17T02:01:26.024Z,13.82
2018-10-17T02:02:26.015Z,13.82
2018-10-17T02:03:26.033Z,13.79
2018-10-17T02:04:25.990Z,13.73
2018-10-17T02:05:25.979Z,13.71
2018-10-17T02:06:25.968Z,13.75
2018-10-17T02:07:25.958Z,13.73
2018-10-17T02:08:25.949Z,13.69
2018-10-17T02:09:25.950Z,13.73
2018-10-17T02:10:25.926Z,13.67
2018-10-17T02:11:25.915Z,13.67
2018-10-17T02:12:25.907Z,13.67
2018-10-17T02:13:25.892Z,13.73
2018-10-17T02:14:25.893Z,13.64
2018-10-17T02:15:25.871Z,13.63
2018-10-17T02:16:25.861Z,13.64
2018-10-17T02:17:25.848Z,13.51
2018-10-17T02:18:25.839Z,13.59
2018-10-17T02:19:25.841Z,13.64
2018-10-17T02:20:25.817Z,13.54
2018-10-17T02:21:25.806Z,13.49
2018-10-17T02:22:25.812Z,13.59
2018-10-17T02:23:25.827Z,13.48
2018-10-17T02:24:25.772Z,13.54
2018-10-17T02:25:25.762Z,13.39
2018-10-17T02:26:25.752Z,13.55
2018-10-17T02:27:25.741Z,13.51
2018-10-17T02:28:25.730Z,13.49
2018-10-17T02:29:25.763Z,13.49
2018-10-17T02:30:25.709Z,13.49
2018-10-17T02:31:25.697Z,13.45
2018-10-17T02:32:25.686Z,13.41
2018-10-17T02:33:25.679Z,13.48
2018-10-17T02:34:25.664Z,13.41
2018-10-17T02:35:25.669Z,13.44
2018-10-17T02:36:25.676Z,13.42
2018-10-17T02:37:25.633Z,13.45
2018-10-17T02:38:25.622Z,13.45
2018-10-17T02:39:25.646Z,13.42
2018-10-17T02:40:25.599Z,13.30
2018-10-17T02:41:25.590Z,13.32
2018-10-17T02:42:25.592Z,13.29
2018-10-17T02:43:25.582Z,13.32
2018-10-17T02:44:25.558Z,13.36
2018-10-17T02:45:25.546Z,13.30
2018-10-17T02:46:25.533Z,13.29
2018-10-17T02:47:25.524Z,13.22
2018-10-17T02:48:25.530Z,13.19
2018-10-17T02:49:25.509Z,13.25
2018-10-17T02:50:25.493Z,13.22
2018-10-17T02:51:25.493Z,13.17
2018-10-17T02:52:25.472Z,13.19
2018-10-17T02:53:25.462Z,13.15
2018-10-17T02:54:25.464Z,13.17
2018-10-17T02:55:25.439Z,13.11
2018-10-17T02:56:25.428Z,13.10
2018-10-17T02:57:25.418Z,13.03
2018-10-17T02:58:25.407Z,13.12
2018-10-17T02:59:25.428Z,13.04
2018-10-17T03:00:25.386Z,13.03
2018-10-17T03:01:25.381Z,13.01
2018-10-17T03:02:25.366Z,13.01
2018-10-17T03:03:25.352Z,12.95
2018-10-17T03:04:25.367Z,13.00
2018-10-17T03:05:25.340Z,13.00
2018-10-17T03:06:25.331Z,13.04
2018-10-17T03:07:25.310Z,13.00
2018-10-17T03:08:25.303Z,13.03
2018-10-17T03:09:25.286Z,12.95
2018-10-17T03:10:25.276Z,13.01
2018-10-17T03:11:25.289Z,13.01
2018-10-17T03:12:25.259Z,13.00
2018-10-17T03:13:25.244Z,13.00
2018-10-17T03:14:25.232Z,12.96
2018-10-17T03:15:25.222Z,13.00
2018-10-17T03:16:25.222Z,12.96
2018-10-17T03:17:25.201Z,12.92
2018-10-17T03:18:25.190Z,12.93
2018-10-17T03:19:25.182Z,12.92
2018-10-17T03:20:25.169Z,12.90
2018-10-17T03:21:25.188Z,12.85
2018-10-17T03:22:25.147Z,12.87
2018-10-17T03:23:25.136Z,12.86
2018-10-17T03:24:25.126Z,12.92
2018-10-17T03:25:25.116Z,12.85
2018-10-17T03:26:25.107Z,12.87
2018-10-17T03:27:25.105Z,12.82
2018-10-17T03:28:25.086Z,12.82
2018-10-17T03:29:25.073Z,12.79
2018-10-17T03:30:25.089Z,12.82
2018-10-17T03:31:25.177Z,12.82
2018-10-17T03:32:25.051Z,12.78
2018-10-17T03:33:25.064Z,12.77
2018-10-17T03:34:25.018Z,12.77
2018-10-17T03:35:25.008Z,12.87
2018-10-17T03:36:24.997Z,12.79
2018-10-17T03:37:24.988Z,12.90
2018-10-17T03:38:24.977Z,12.71
2018-10-17T03:39:24.986Z,12.85
2018-10-17T03:40:24.954Z,12.74
2018-10-17T03:41:24.945Z,12.77
2018-10-17T03:42:24.931Z,12.79
2018-10-17T03:43:24.922Z,12.79
2018-10-17T03:44:24.922Z,12.72
2018-10-17T03:45:24.900Z,12.77
2018-10-17T03:46:24.889Z,12.72
2018-10-17T03:47:24.879Z,12.78
2018-10-17T03:48:24.868Z,12.70
2018-10-17T03:49:24.901Z,12.78
2018-10-17T03:50:24.863Z,12.78
2018-10-17T03:51:24.835Z,12.79
2018-10-17T03:52:24.844Z,12.70
2018-10-17T03:53:24.814Z,12.70
2018-10-17T03:54:24.801Z,12.70
2018-10-17T03:55:24.792Z,12.68
2018-10-17T03:56:24.781Z,12.71
2018-10-17T03:57:24.789Z,12.72
2018-10-17T03:58:24.762Z,12.68
2018-10-17T03:59:24.879Z,12.67
2018-10-17T04:00:24.753Z,12.68
2018-10-17T04:01:24.727Z,12.64
2018-10-17T04:02:24.716Z,12.67
2018-10-17T04:03:24.712Z,12.62
2018-10-17T04:04:24.694Z,12.59
2018-10-17T04:05:24.698Z,12.62
2018-10-17T04:06:24.711Z,12.59
2018-10-17T04:07:24.664Z,12.54
2018-10-17T04:08:24.653Z,12.54
2018-10-17T04:09:24.644Z,12.59
2018-10-17T04:10:24.633Z,12.59
2018-10-17T04:11:24.621Z,12.56
2018-10-17T04:12:24.639Z,12.59
2018-10-17T04:13:24.597Z,12.56
2018-10-17T04:14:24.587Z,12.59
2018-10-17T04:15:24.577Z,12.57
2018-10-17T04:16:24.565Z,12.62
2018-10-17T04:17:24.552Z,12.59
2018-10-17T04:18:24.572Z,12.57
2018-10-17T04:19:24.532Z,12.57
2018-10-17T04:20:24.521Z,12.64
2018-10-17T04:21:24.509Z,12.62
2018-10-17T04:22:24.519Z,12.59
2018-10-17T04:23:24.490Z,12.64
2018-10-17T04:24:24.518Z,12.64
2018-10-17T04:25:24.469Z,12.59
2018-10-17T04:26:24.457Z,12.64
2018-10-17T04:27:24.450Z,12.59
2018-10-17T04:28:24.435Z,12.64
2018-10-17T04:29:24.425Z,12.65
2018-10-17T04:30:24.429Z,12.59
2018-10-17T04:31:24.402Z,12.60
2018-10-17T04:32:24.400Z,12.64
2018-10-17T04:33:24.384Z,12.62
2018-10-17T04:34:24.382Z,12.57
2018-10-17T04:35:24.365Z,12.64
2018-10-17T04:36:24.349Z,12.59
2018-10-17T04:37:24.339Z,12.57
2018-10-17T04:38:24.328Z,12.62
2018-10-17T04:39:24.332Z,12.67
2018-10-17T04:40:24.322Z,12.60
2018-10-17T04:41:24.296Z,12.57
2018-10-17T04:42:24.286Z,12.62
2018-10-17T04:43:24.273Z,12.62
2018-10-17T04:44:24.297Z,12.60
2018-10-17T04:45:24.255Z,12.57
2018-10-17T04:46:24.242Z,12.59
2018-10-17T04:47:24.262Z,12.54
2018-10-17T04:48:24.220Z,12.56
2018-10-17T04:49:24.209Z,12.52
2018-10-17T04:50:24.212Z,12.56
2018-10-17T04:51:24.194Z,12.57
2018-10-17T04:52:24.176Z,12.57
2018-10-17T04:53:24.166Z,12.52
2018-10-17T04:54:24.155Z,12.56
2018-10-17T04:55:24.179Z,12.53
2018-10-17T04:56:24.133Z,12.56
2018-10-17T04:57:24.123Z,12.52
2018-10-17T04:58:24.115Z,12.56
2018-10-17T04:59:24.099Z,12.49
2018-10-17T05:00:24.088Z,12.52
2018-10-17T05:01:24.111Z,12.53
2018-10-17T05:02:24.071Z,12.57
2018-10-17T05:03:24.063Z,12.59
2018-10-17T05:04:24.099Z,12.53
2018-10-17T05:05:24.039Z,12.60
2018-10-17T05:06:24.028Z,12.52
2018-10-17T05:07:24.181Z,12.54
2018-10-17T05:08:24.002Z,12.57
2018-10-17T05:09:23.992Z,12.53
2018-10-17T05:10:23.981Z,12.56
2018-10-17T05:11:23.997Z,12.52
2018-10-17T05:12:23.958Z,12.56
2018-10-17T05:13:23.947Z,12.53
2018-10-17T05:14:23.937Z,12.57
2018-10-17T05:15:24.026Z,12.59
2018-10-17T05:16:23.915Z,12.54
2018-10-17T05:17:23.945Z,12.64
2018-10-17T05:18:23.894Z,12.62
2018-10-17T05:19:23.883Z,12.65
2018-10-17T05:20:23.874Z,12.60
2018-10-17T05:21:23.862Z,12.62
2018-10-17T05:22:23.854Z,12.62
2018-10-17T05:23:23.854Z,12.72
2018-10-17T05:24:23.830Z,12.70
2018-10-17T05:25:23.834Z,12.72
2018-10-17T05:26:23.809Z,12.68
2018-10-17T05:27:23.801Z,12.68
2018-10-17T05:28:23.803Z,12.75
2018-10-17T05:29:23.781Z,12.71
2018-10-17T05:30:23.767Z,12.74
2018-10-17T05:31:23.757Z,12.75
2018-10-17T05:32:23.747Z,12.74
2018-10-17T05:33:23.749Z,12.72
2018-10-17T05:34:23.722Z,12.77
2018-10-17T05:35:23.711Z,12.78
2018-10-17T05:36:23.711Z,12.72
2018-10-17T05:37:23.768Z,12.72
2018-10-17T05:38:23.688Z,12.72
2018-10-17T05:39:23.667Z,12.67
2018-10-17T05:40:23.658Z,12.74
2018-10-17T05:41:23.647Z,12.75
2018-10-17T05:42:23.636Z,12.74
2018-10-17T05:43:23.633Z,12.72
2018-10-17T05:44:23.678Z,12.75
2018-10-17T05:45:23.612Z,12.71
2018-10-17T05:46:23.591Z,12.65
2018-10-17T05:47:23.583Z,12.70
2018-10-17T05:48:23.575Z,12.72
2018-10-17T05:49:23.563Z,12.72
2018-10-17T05:50:23.692Z,12.70
2018-10-17T05:51:23.537Z,12.67
2018-10-17T05:52:23.528Z,12.72
2018-10-17T05:53:23.515Z,12.70
2018-10-17T05:54:23.510Z,12.72
2018-10-17T05:55:23.551Z,12.65
2018-10-17T05:56:23.496Z,12.71
2018-10-17T05:57:23.474Z,12.67
2018-10-17T05:58:23.462Z,12.70
2018-10-17T05:59:23.454Z,12.67
2018-10-17T06:00:23.450Z,12.72
2018-10-17T06:01:23.454Z,12.70
2018-10-17T06:02:23.464Z,12.68
2018-10-17T06:03:23.408Z,12.74
2018-10-17T06:04:23.424Z,12.65
2018-10-17T06:05:23.388Z,12.71
2018-10-17T06:06:23.381Z,12.74
2018-10-17T06:07:23.365Z,12.67
2018-10-17T06:08:23.353Z,12.67
2018-10-17T06:09:23.348Z,12.71
2018-10-17T06:10:23.406Z,12.70
2018-10-17T06:11:23.324Z,12.64
2018-10-17T06:12:23.325Z,12.62
2018-10-17T06:13:23.303Z,12.65
2018-10-17T06:14:23.294Z,12.65
2018-10-17T06:15:23.281Z,12.65
2018-10-17T06:16:23.268Z,12.67
2018-10-17T06:17:23.350Z,12.70
2018-10-17T06:18:23.248Z,12.72
2018-10-17T06:19:23.237Z,12.72
2018-10-17T06:20:23.225Z,12.77
2018-10-17T06:21:23.217Z,12.77
2018-10-17T06:22:23.231Z,12.78
2018-10-17T06:23:23.195Z,12.77
2018-10-17T06:24:23.183Z,12.74
2018-10-17T06:25:23.179Z,12.75
2018-10-17T06:26:23.161Z,12.74
2018-10-17T06:27:23.150Z,12.72
2018-10-17T06:28:23.199Z,12.79
2018-10-17T06:29:23.128Z,12.72
2018-10-17T06:30:23.121Z,12.86
2018-10-17T06:31:23.112Z,12.78
2018-10-17T06:32:23.108Z,12.83
2018-10-17T06:33:23.085Z,12.83
2018-10-17T06:34:23.137Z,12.83
2018-10-17T06:35:23.065Z,12.79
2018-10-17T06:36:23.091Z,12.90
2018-10-17T06:37:23.041Z,12.89
2018-10-17T06:38:23.030Z,12.79
2018-10-17T06:39:23.030Z,12.86
2018-10-17T06:40:23.012Z,12.93
2018-10-17T06:41:22.999Z,12.89
2018-10-17T06:42:23.024Z,12.87
2018-10-17T06:43:23.005Z,12.87
2018-10-17T06:44:22.969Z,12.86
2018-10-17T06:45:22.993Z,12.86
2018-10-17T06:46:22.944Z,13.00
2018-10-17T06:47:22.934Z,13.00
2018-10-17T06:48:22.983Z,13.01
2018-10-17T06:49:22.911Z,13.03
2018-10-17T06:50:22.900Z,13.03
2018-10-17T06:51:22.890Z,13.11
2018-10-17T06:52:22.919Z,13.12
2018-10-17T06:53:22.866Z,13.14
2018-10-17T06:54:22.873Z,13.15
2018-10-17T06:55:22.848Z,13.20
2018-10-17T06:56:22.891Z,13.23
2018-10-17T06:57:22.827Z,13.25
2018-10-17T06:58:22.827Z,13.22
2018-10-17T06:59:22.812Z,13.25
2018-10-17T07:00:22.791Z,13.29
2018-10-17T07:01:22.781Z,13.32
2018-10-17T07:02:22.845Z,13.38
2018-10-17T07:03:22.777Z,13.51
2018-10-17T07:04:22.748Z,13.44
2018-10-17T07:05:22.737Z,13.62
2018-10-17T07:06:22.725Z,13.48
2018-10-17T07:07:22.728Z,13.54
2018-10-17T07:08:22.884Z,13.57
2018-10-17T07:09:22.699Z,13.66
2018-10-17T07:10:22.684Z,13.70
2018-10-17T07:11:22.797Z,13.82
2018-10-17T07:12:22.687Z,13.75
2018-10-17T07:13:22.684Z,13.88
2018-10-17T07:14:22.638Z,14.02
2018-10-17T07:15:22.675Z,13.97
2018-10-17T07:16:22.615Z,13.96
2018-10-17T07:17:22.605Z,14.07
2018-10-17T07:18:22.626Z,14.03
2018-10-17T07:19:22.583Z,14.12
2018-10-17T07:20:22.574Z,14.21
2018-10-17T07:21:22.562Z,14.35
2018-10-17T07:22:22.551Z,14.29
2018-10-17T07:23:22.539Z,14.43
2018-10-17T07:24:22.545Z,14.47
2018-10-17T07:25:22.519Z,14.51
2018-10-17T07:26:22.510Z,14.65
2018-10-17T07:27:22.496Z,14.65
2018-10-17T07:28:22.484Z,14.80
2018-10-17T07:29:22.639Z,14.75
2018-10-17T07:30:22.462Z,14.96
2018-10-17T07:31:22.454Z,15.01
2018-10-17T07:32:22.439Z,15.13
2018-10-17T07:33:22.428Z,15.23
2018-10-17T07:34:22.432Z,15.35
2018-10-17T07:35:22.407Z,15.50
2018-10-17T07:36:22.397Z,15.51
2018-10-17T07:37:22.428Z,15.60
2018-10-17T07:38:22.385Z,15.76
2018-10-17T07:39:22.364Z,15.80
2018-10-17T07:40:22.352Z,15.90
2018-10-17T07:41:22.357Z,15.97
2018-10-17T07:42:22.331Z,16.11
2018-10-17T07:43:22.325Z,16.21
2018-10-17T07:44:22.313Z,16.34
2018-10-17T07:45:22.302Z,16.48
2018-10-17T07:46:22.322Z,16.66
2018-10-17T07:47:22.326Z,16.94
2018-10-17T07:48:22.265Z,17.14
2018-10-17T07:49:22.256Z,17.31
2018-10-17T07:50:22.248Z,17.43
2018-10-17T07:51:22.233Z,17.66
2018-10-17T07:52:22.248Z,17.74
2018-10-17T07:53:22.246Z,17.90
2018-10-17T07:54:22.204Z,18.12
2018-10-17T07:55:22.192Z,18.20
2018-10-17T07:56:22.181Z,18.27
2018-10-17T07:57:22.169Z,18.32
2018-10-17T07:58:22.185Z,18.41
2018-10-17T07:59:22.149Z,18.42
2018-10-17T08:00:22.248Z,18.36
2018-10-17T08:01:22.130Z,18.51
2018-10-17T08:02:22.126Z,18.44
2018-10-17T08:03:22.118Z,18.42
2018-10-17T08:04:22.098Z,18.51
2018-10-17T08:05:22.082Z,18.57
2018-10-17T08:06:22.081Z,18.65
2018-10-17T08:07:22.089Z,18.57
2018-10-17T08:08:22.049Z,18.62
2018-10-17T08:09:22.039Z,18.65
2018-10-17T08:10:22.029Z,18.65
2018-10-17T08:11:22.020Z,18.63
2018-10-17T08:12:22.049Z,18.69
2018-10-17T08:13:22.008Z,18.67
2018-10-17T08:14:22.005Z,18.81
2018-10-17T08:15:21.974Z,18.82
2018-10-17T08:16:21.963Z,18.88
2018-10-17T08:17:21.957Z,18.88
2018-10-17T08:18:21.956Z,19.04
2018-10-17T08:19:21.934Z,19.10
2018-10-17T08:20:21.920Z,19.21
2018-10-17T08:21:21.959Z,19.39
2018-10-17T08:22:21.898Z,19.46
2018-10-17T08:23:21.915Z,19.54
2018-10-17T08:24:21.881Z,19.51
2018-10-17T08:25:21.866Z,19.63
2018-10-17T08:26:21.859Z,19.62
2018-10-17T08:27:21.929Z,19.68
2018-10-17T08:28:21.837Z,19.71
2018-10-17T08:29:21.835Z,19.55
2018-10-17T08:30:21.819Z,19.65
2018-10-17T08:31:21.803Z,19.74
2018-10-17T08:32:21.791Z,19.83
2018-10-17T08:33:21.794Z,19.94
2018-10-17T08:34:21.785Z,20.13
2018-10-17T08:35:21.778Z,20.18
2018-10-17T08:36:21.899Z,20.16
2018-10-17T08:37:22.059Z,20.23
2018-10-17T08:38:21.728Z,20.29
2018-10-17T08:39:21.728Z,20.42
2018-10-17T08:40:21.703Z,20.48
2018-10-17T08:41:21.740Z,20.48
2018-10-17T08:42:21.684Z,20.38
2018-10-17T08:43:21.682Z,20.36
2018-10-17T08:44:21.660Z,20.48
2018-10-17T08:45:21.652Z,20.59
2018-10-17T08:46:21.639Z,20.59
2018-10-17T08:47:21.628Z,20.61
2018-10-17T08:48:21.642Z,20.50
2018-10-17T08:49:21.621Z,20.43
2018-10-17T08:50:21.605Z,20.54
2018-10-17T08:51:21.674Z,20.73
2018-10-17T08:52:21.839Z,20.77
2018-10-17T08:53:21.567Z,20.72
2018-10-17T08:54:21.567Z,20.72
2018-10-17T08:55:21.564Z,20.91
2018-10-17T08:56:21.547Z,20.92
2018-10-17T08:57:21.531Z,21.03
2018-10-17T08:58:21.518Z,21.16
2018-10-17T08:59:21.501Z,21.32
2018-10-17T09:00:21.546Z,21.40
2018-10-17T09:01:21.514Z,21.47
2018-10-17T09:02:21.470Z,21.52
2018-10-17T09:03:21.457Z,21.62
2018-10-17T09:04:21.454Z,21.47
2018-10-17T09:05:21.441Z,21.52
2018-10-17T09:06:21.426Z,21.40
2018-10-17T09:07:21.434Z,21.46
2018-10-17T09:08:21.489Z,21.47
2018-10-17T09:09:21.408Z,21.47
2018-10-17T09:10:21.388Z,21.54
2018-10-17T09:11:21.373Z,21.61
2018-10-17T09:12:21.416Z,21.65
2018-10-17T09:13:21.406Z,21.71
2018-10-17T09:14:21.432Z,21.79
2018-10-17T09:15:21.331Z,21.94
2018-10-17T09:16:21.433Z,22.00
2018-10-17T09:17:21.563Z,22.14
2018-10-17T09:18:21.541Z,22.28
2018-10-17T09:19:21.649Z,22.21
2018-10-17T09:20:21.702Z,22.30
2018-10-17T09:21:21.760Z,22.36
2018-10-17T09:22:21.572Z,22.36
2018-10-17T09:23:21.263Z,22.25
2018-10-17T09:24:21.322Z,22.42
2018-10-17T09:25:21.333Z,22.47
2018-10-17T09:26:21.219Z,22.64
2018-10-17T09:27:21.206Z,22.70
2018-10-17T09:28:21.212Z,22.72
2018-10-17T09:29:21.415Z,22.72
2018-10-17T09:30:21.281Z,22.72
2018-10-17T09:31:21.166Z,22.72
2018-10-17T09:32:21.153Z,22.75
2018-10-17T09:33:21.155Z,22.75
2018-10-17T09:34:21.268Z,22.80
2018-10-17T09:35:21.219Z,22.94
2018-10-17T09:36:21.218Z,23.07
2018-10-17T09:37:21.115Z,23.05
2018-10-17T09:38:21.090Z,23.20
2018-10-17T09:39:21.127Z,23.32
2018-10-17T09:40:21.083Z,23.33
2018-10-17T09:41:21.058Z,23.38
2018-10-17T09:42:21.158Z,23.40
2018-10-17T09:43:21.129Z,23.58
2018-10-17T09:44:21.087Z,23.69
2018-10-17T09:45:21.027Z,23.66
2018-10-17T09:46:21.005Z,23.53
2018-10-17T09:47:20.995Z,23.63
2018-10-17T09:48:20.986Z,23.60
2018-10-17T09:49:20.975Z,23.35
2018-10-17T09:50:21.021Z,23.20
2018-10-17T09:51:20.952Z,23.07
2018-10-17T09:52:20.945Z,23.01
2018-10-17T09:53:20.955Z,23.02
2018-10-17T09:54:20.922Z,23.05
2018-10-17T09:55:20.951Z,23.04
2018-10-17T09:56:20.909Z,23.05
2018-10-17T09:57:20.891Z,23.13
2018-10-17T09:58:20.878Z,23.33
2018-10-17T09:59:20.868Z,23.57
2018-10-17T10:00:20.910Z,23.75
2018-10-17T10:01:20.864Z,23.83
2018-10-17T10:02:20.900Z,24.03
2018-10-17T10:03:20.826Z,24.25
2018-10-17T10:04:20.817Z,24.32
2018-10-17T10:05:20.806Z,24.39
2018-10-17T10:06:20.841Z,24.57
2018-10-17T10:07:20.802Z,24.45
2018-10-17T10:08:20.774Z,24.62
2018-10-17T10:09:20.765Z,24.64
2018-10-17T10:10:20.754Z,24.71
2018-10-17T10:11:20.757Z,24.69
2018-10-17T10:12:20.735Z,24.76
2018-10-17T10:13:20.723Z,24.76
2018-10-17T10:14:20.717Z,24.71
2018-10-17T10:15:20.706Z,24.85
2018-10-17T10:16:20.732Z,24.77
2018-10-17T10:17:20.846Z,24.71
2018-10-17T10:18:20.672Z,24.78
2018-10-17T10:19:20.660Z,24.65
2018-10-17T10:20:20.649Z,24.71
2018-10-17T10:21:20.639Z,24.68
2018-10-17T10:22:20.629Z,24.68
2018-10-17T10:23:20.666Z,24.81
2018-10-17T10:24:20.652Z,24.90
2018-10-17T10:25:20.637Z,24.47
2018-10-17T10:26:20.586Z,24.22
2018-10-17T10:27:20.590Z,24.20
2018-10-17T10:28:20.721Z,24.30
2018-10-17T10:29:20.556Z,24.06
2018-10-17T10:30:20.661Z,24.09
2018-10-17T10:31:20.537Z,24.08
2018-10-17T10:32:20.524Z,24.27
2018-10-17T10:33:20.527Z,24.42
2018-10-17T10:34:20.700Z,24.67
2018-10-17T10:35:20.495Z,24.58
2018-10-17T10:36:20.482Z,24.65
2018-10-17T10:37:20.475Z,24.91
2018-10-17T10:38:20.472Z,24.95
2018-10-17T10:39:20.452Z,24.76
2018-10-17T10:40:20.442Z,24.65
2018-10-17T10:41:20.433Z,24.58
2018-10-17T10:42:20.420Z,24.76
2018-10-17T10:43:20.425Z,24.78
2018-10-17T10:44:20.524Z,24.87
2018-10-17T10:45:20.596Z,25.00
2018-10-17T10:46:20.380Z,24.95
2018-10-17T10:47:20.371Z,24.52
2018-10-17T10:48:20.359Z,24.28
2018-10-17T10:49:20.490Z,24.24
2018-10-17T10:50:20.483Z,24.03
2018-10-17T10:51:20.424Z,24.12
2018-10-17T10:52:20.332Z,24.25
2018-10-17T10:53:20.334Z,24.35
2018-10-17T10:54:20.415Z,24.50
2018-10-17T10:55:20.285Z,24.67
2018-10-17T10:56:20.277Z,24.88
2018-10-17T10:57:20.267Z,24.99
2018-10-17T10:58:20.425Z,25.09
2018-10-17T10:59:20.496Z,25.32
2018-10-17T11:00:20.302Z,25.40
2018-10-17T11:01:20.224Z,25.55
2018-10-17T11:02:20.213Z,25.67
2018-10-17T11:03:20.202Z,25.77
2018-10-17T11:04:20.193Z,25.91
2018-10-17T11:05:20.296Z,25.91
2018-10-17T11:06:20.171Z,26.09
2018-10-17T11:07:20.164Z,26.06
2018-10-17T11:08:20.150Z,26.06
2018-10-17T11:09:20.141Z,26.13
2018-10-17T11:10:20.144Z,26.10
2018-10-17T11:11:20.250Z,26.23
2018-10-17T11:12:20.107Z,26.29
2018-10-17T11:13:20.098Z,26.29
2018-10-17T11:14:20.303Z,26.33
2018-10-17T11:15:20.108Z,26.28
2018-10-17T11:16:20.066Z,26.29
2018-10-17T11:17:20.057Z,26.32
2018-10-17T11:18:20.046Z,26.33
2018-10-17T11:19:20.035Z,26.32
2018-10-17T11:20:20.028Z,26.28
2018-10-17T11:21:20.029Z,26.12
2018-10-17T11:22:20.006Z,25.97
2018-10-17T11:23:20.098Z,25.94
2018-10-17T11:24:19.985Z,25.97
2018-10-17T11:25:19.974Z,25.77
2018-10-17T11:26:19.963Z,25.77
2018-10-17T11:27:19.953Z,25.82
2018-10-17T11:28:19.953Z,25.92
2018-10-17T11:29:20.059Z,25.95
2018-10-17T11:30:19.931Z,26.01
2018-10-17T11:31:19.992Z,26.02
2018-10-17T11:32:19.933Z,26.09
2018-10-17T11:33:19.890Z,26.01
2018-10-17T11:34:19.881Z,26.07
2018-10-17T11:35:19.870Z,25.97
2018-10-17T11:36:19.860Z,25.90
2018-10-17T11:37:19.896Z,25.76
2018-10-17T11:38:19.853Z,25.55
2018-10-17T11:39:19.830Z,25.42
2018-10-17T11:40:19.822Z,25.24
2018-10-17T11:41:19.944Z,25.08
2018-10-17T11:42:19.799Z,25.18
2018-10-17T11:43:19.800Z,25.36
2018-10-17T11:44:19.777Z,25.58
2018-10-17T11:45:19.912Z,25.64
2018-10-17T11:46:19.756Z,25.77
2018-10-17T11:47:19.763Z,25.94
2018-10-17T11:48:19.776Z,26.07
2018-10-17T11:49:19.725Z,26.02
2018-10-17T11:50:19.716Z,25.99
2018-10-17T11:51:19.737Z,25.99
2018-10-17T11:52:19.694Z,26.05
2018-10-17T11:53:19.683Z,26.20
2018-10-17T11:54:19.688Z,26.32
2018-10-17T11:55:19.663Z,26.33
2018-10-17T11:56:19.652Z,26.39
2018-10-17T11:57:19.707Z,26.33
2018-10-17T11:58:19.641Z,26.37
2018-10-17T11:59:19.805Z,26.39
2018-10-17T12:00:19.611Z,26.54
2018-10-17T12:01:19.601Z,26.52
2018-10-17T12:02:19.591Z,26.57
2018-10-17T12:03:19.614Z,26.55
2018-10-17T12:04:19.863Z,26.57
2018-10-17T12:05:19.784Z,26.57
2018-10-17T12:06:19.674Z,26.44
2018-10-17T12:07:19.541Z,26.58
2018-10-17T12:08:19.527Z,26.40
2018-10-17T12:09:19.632Z,26.12
2018-10-17T12:10:19.508Z,25.88
2018-10-17T12:11:19.515Z,25.77
2018-10-17T12:12:19.529Z,25.73
2018-10-17T12:13:19.476Z,25.79
2018-10-17T12:14:19.467Z,25.80
2018-10-17T12:15:19.558Z,25.61
2018-10-17T12:16:19.445Z,25.55
2018-10-17T12:17:19.437Z,25.67
2018-10-17T12:18:19.426Z,25.82
2018-10-17T12:19:19.415Z,26.02
2018-10-17T12:20:19.418Z,26.13
2018-10-17T12:21:19.451Z,26.32
2018-10-17T12:22:19.384Z,26.39
2018-10-17T12:23:19.373Z,26.55
2018-10-17T12:24:19.364Z,26.67
2018-10-17T12:25:19.385Z,26.84
2018-10-17T12:26:19.342Z,26.95
2018-10-17T12:27:19.383Z,27.00
2018-10-17T12:28:19.373Z,26.97
2018-10-17T12:29:19.312Z,27.00
2018-10-17T12:30:19.304Z,27.06
2018-10-17T12:31:19.303Z,27.13
2018-10-17T12:32:19.321Z,27.09
2018-10-17T12:33:19.271Z,27.10
2018-10-17T12:34:19.261Z,27.07
2018-10-17T12:35:19.326Z,27.09
2018-10-17T12:36:19.243Z,27.09
2018-10-17T12:37:19.229Z,26.94
2018-10-17T12:38:19.251Z,26.62
2018-10-17T12:39:19.312Z,26.52
2018-10-17T12:40:19.313Z,26.62
2018-10-17T12:41:19.240Z,26.58
2018-10-17T12:42:19.242Z,26.57
2018-10-17T12:43:19.169Z,26.54
2018-10-17T12:44:19.326Z,26.65
2018-10-17T12:45:19.331Z,26.70
2018-10-17T12:46:19.140Z,26.70
2018-10-17T12:47:19.282Z,26.65
2018-10-17T12:48:19.130Z,26.57
2018-10-17T12:49:19.132Z,26.57
2018-10-17T12:50:19.137Z,26.54
2018-10-17T12:51:19.089Z,26.60
2018-10-17T12:52:19.143Z,26.54